Time;durP1;ratioP1;P1;durP2;ratioP2;P2;SDS_P1;SDS_P2;PMS_P1;PMS_P2;Temp;Humidity;BMP_temperature;BMP_pressure;BME280_temperature;BME280_humidity;BME280_pressure;Samples;Min_cycle;Max_cycle;Signal;HPM_P1;HPM_P2
2021/03/26 00:00:44;;;;;;;;;;;;;;;22.39;20.08;98153.38;5064571;28;833;-77
2021/03/26 00:03:10;;;;;;;;;;;;;;;22.20;20.53;98153.03;5081228;28;955;-77
2021/03/26 00:05:35;;;;;;;;;;;;;;;21.99;20.48;98151.53;5064616;28;837;-77
2021/03/26 00:08:02;;;;;;;;;;;;;;;21.55;21.25;98147.38;5081449;28;705;-77
2021/03/26 00:10:27;;;;;;;;;;;;;;;21.90;20.87;98139.22;5064307;28;990;-77
2021/03/26 00:12:52;;;;;;;;;;;;;;;22.71;19.84;98144.75;5081321;28;1975;-77
2021/03/26 00:15:18;;;;;;;;;;;;;;;22.66;19.55;98133.97;5080886;28;906;-77
2021/03/26 00:17:43;;;;;;;;;;;;;;;22.61;19.83;98137.34;5081158;28;862;-77
2021/03/26 00:20:09;;;;;;;;;;;;;;;22.40;20.12;98141.56;5081291;28;1093;-78
2021/03/26 00:22:34;;;;;;;;;;;;;;;21.81;20.92;98137.84;5081989;28;685;-77
2021/03/26 00:25:00;;;;;;;;;;;;;;;21.94;20.52;98145.63;5063794;28;678;-77
2021/03/26 00:27:25;;;;;;;;;;;;;;;21.73;20.94;98141.28;5064121;28;841;-77
2021/03/26 00:29:51;;;;;;;;;;;;;;;21.82;20.56;98139.44;5080816;28;802;-78
2021/03/26 00:32:17;;;;;;;;;;;;;;;21.84;20.62;98133.31;5081530;28;1913;-78
2021/03/26 00:34:43;;;;;;;;;;;;;;;21.60;20.91;98138.34;5080926;28;730;-77
2021/03/26 00:37:08;;;;;;;;;;;;;;;21.93;20.47;98139.16;5081231;28;737;-77
2021/03/26 00:39:34;;;;;;;;;;;;;;;21.94;20.46;98139.94;5081180;28;591;-78
2021/03/26 00:41:59;;;;;;;;;;;;;;;21.82;20.63;98139.44;5081408;28;650;-77
2021/03/26 00:44:24;;;;;;;;;;;;;;;21.81;20.96;98137.84;5080459;28;975;-77
2021/03/26 00:46:50;;;;;;;;;;;;;;;21.98;20.49;98126.50;5081451;28;971;-77
2021/03/26 00:49:15;;;;;;;;;;;;;;;21.41;21.06;98131.53;5080659;28;1088;-77
2021/03/26 00:51:41;;;;;;;;;;;;;;;20.88;22.20;98144.00;5064123;28;1953;-77
2021/03/26 00:54:07;;;;;;;;;;;;;;;22.23;20.26;98140.81;5081109;28;714;-78
2021/03/26 00:56:32;;;;;;;;;;;;;;;22.40;19.91;98133.06;5064191;28;1216;-77
2021/03/26 00:58:58;;;;;;;;;;;;;;;22.43;19.98;98137.03;5062908;28;1290;-77
2021/03/26 01:01:23;;;;;;;;;;;;;;;22.55;19.57;98131.44;5081224;28;993;-77
2021/03/26 01:03:49;;;;;;;;;;;;;;;22.17;20.32;98136.91;5080448;28;890;-78
2021/03/26 01:06:16;;;;;;;;;;;;;;;21.96;20.63;98135.41;5081438;28;916;-77
2021/03/26 01:08:42;;;;;;;;;;;;;;;22.12;20.32;98139.50;5062804;28;1314;-77
2021/03/26 01:11:12;;;;;;;;;;;;;;;22.27;19.96;98141.50;5048012;28;1313;-76
2021/03/26 01:13:38;;;;;;;;;;;;;;;22.15;20.23;98139.41;5080266;28;1879;-76
2021/03/26 01:16:04;;;;;;;;;;;;;;;21.95;20.57;98142.31;5063950;28;1700;-77
2021/03/26 01:18:31;;;;;;;;;;;;;;;21.65;20.73;98140.66;5080238;28;817;-77
2021/03/26 01:20:58;;;;;;;;;;;;;;;21.97;20.31;98144.75;5064356;28;1198;-77
2021/03/26 01:23:24;;;;;;;;;;;;;;;21.81;20.66;98146.34;5066399;28;674;-77
2021/03/26 01:25:50;;;;;;;;;;;;;;;21.93;20.49;98132.69;5068065;28;689;-77
2021/03/26 01:28:38;;;;;;;;;;;;;;;21.75;20.78;98144.47;5032959;28;1036;-77
2021/03/26 01:31:23;;;;;;;;;;;;;;;21.60;21.08;98149.66;5084599;28;956;-77
2021/03/26 01:33:50;;;;;;;;;;;;;;;22.34;19.89;98146.22;5050572;28;1967;-78
2021/03/26 01:36:16;;;;;;;;;;;;;;;22.56;19.74;98147.19;5084897;28;685;-78
2021/03/26 01:38:42;;;;;;;;;;;;;;;22.14;20.13;98140.66;5050213;28;1266;-78
2021/03/26 01:41:09;;;;;;;;;;;;;;;21.71;20.66;98138.91;5067416;28;948;-77
2021/03/26 01:43:36;;;;;;;;;;;;;;;21.74;20.64;98132.34;5049559;28;1184;-77
2021/03/26 01:46:01;;;;;;;;;;;;;;;22.85;19.18;98146.38;5084851;28;984;-77
2021/03/26 01:48:27;;;;;;;;;;;;;;;23.00;18.85;98141.09;5066453;28;1286;-77
2021/03/26 01:50:53;;;;;;;;;;;;;;;22.43;19.80;98140.66;5084889;28;678;-77
2021/03/26 01:53:18;;;;;;;;;;;;;;;21.97;20.04;98139.06;5066372;28;1879;-78
2021/03/26 01:55:51;;;;;;;;;;;;;;;21.78;20.57;98135.88;5084530;28;997;-77
2021/03/26 01:58:19;;;;;;;;;;;;;;;22.45;19.63;98137.41;5065576;28;1171;-77
2021/03/26 02:00:49;;;;;;;;;;;;;;;22.98;18.73;98137.91;5050278;28;1327;-77
2021/03/26 02:03:14;;;;;;;;;;;;;;;22.38;19.74;98140.41;5083563;28;631;-78
2021/03/26 02:05:45;;;;;;;;;;;;;;;22.03;19.91;98143.75;5066905;28;1318;-78
2021/03/26 02:08:19;;;;;;;;;;;;;;;21.72;20.42;98140.50;5066819;28;1020;-77
2021/03/26 02:10:54;;;;;;;;;;;;;;;22.73;19.00;98135.78;5083769;28;1001;-76
2021/03/26 02:13:22;;;;;;;;;;;;;;;22.95;18.67;98138.81;5048617;28;1894;-77
2021/03/26 02:15:49;;;;;;;;;;;;;;;22.30;19.67;98134.94;5066987;28;1206;-78
2021/03/26 02:18:23;;;;;;;;;;;;;;;21.91;20.03;98140.81;5049800;28;1242;-77
2021/03/26 02:20:54;;;;;;;;;;;;;;;21.84;20.21;98136.94;5066885;28;675;-77
2021/03/26 02:23:21;;;;;;;;;;;;;;;22.06;19.74;98144.88;5065546;28;1058;-77
2021/03/26 02:26:39;;;;;;;;;;;;;;;22.62;19.35;98144.59;5083784;28;919;-77
2021/03/26 02:29:22;;;;;;;;;;;;;;;21.94;20.09;98146.41;5039500;28;1218;-77
2021/03/26 02:32:04;;;;;;;;;;;;;;;22.04;19.76;98153.03;5084171;28;1910;-77
2021/03/26 02:34:30;;;;;;;;;;;;;;;22.14;19.46;98154.84;5083455;28;601;-77
2021/03/26 02:37:00;;;;;;;;;;;;;;;22.07;19.57;98161.47;5066120;28;598;-77
2021/03/26 02:39:31;;;;;;;;;;;;;;;21.83;19.99;98163.69;5048907;28;1257;-78
2021/03/26 02:42:01;;;;;;;;;;;;;;;21.82;20.23;98155.63;5049909;28;1471;-77
2021/03/26 02:44:45;;;;;;;;;;;;;;;21.67;20.36;98166.50;5083053;28;701;-77
2021/03/26 02:47:26;;;;;;;;;;;;;;;21.72;20.15;98163.16;5049380;28;1344;-77
2021/03/26 02:50:16;;;;;;;;;;;;;;;21.58;20.15;98174.81;5065794;28;931;-77
2021/03/26 02:53:05;;;;;;;;;;;;;;;21.24;20.83;98173.16;5065814;28;1979;-77
2021/03/26 02:55:42;;;;;;;;;;;;;;;22.80;18.82;98163.97;5073057;28;1090;-77
2021/03/26 02:58:28;;;;;;;;;;;;;;;22.69;18.93;98178.44;5064915;28;1177;-77
2021/03/26 03:01:16;;;;;;;;;;;;;;;22.05;19.60;98182.97;5050839;28;1147;-77
2021/03/26 03:03:41;;;;;;;;;;;;;;;21.90;19.75;98184.56;5065244;28;1353;-77
2021/03/26 03:06:09;;;;;;;;;;;;;;;21.81;19.94;98180.31;5083414;28;682;-77
2021/03/26 03:08:55;;;;;;;;;;;;;;;22.98;18.67;98171.97;5067157;28;946;-78
2021/03/26 03:11:38;;;;;;;;;;;;;;;22.68;18.59;98176.84;5049112;28;1301;-77
2021/03/26 03:14:19;;;;;;;;;;;;;;;21.84;19.69;98176.59;5049154;28;1203;-77
2021/03/26 03:16:44;;;;;;;;;;;;;;;21.63;20.17;98187.66;5049054;28;779;-77
2021/03/26 03:19:11;;;;;;;;;;;;;;;22.14;19.54;98177.50;5082093;28;685;-78
2021/03/26 03:21:41;;;;;;;;;;;;;;;22.86;18.51;98177.13;5065724;28;639;-77
2021/03/26 03:24:11;;;;;;;;;;;;;;;22.73;18.74;98178.34;5064713;28;642;-77
2021/03/26 03:26:48;;;;;;;;;;;;;;;22.06;19.42;98176.84;5067008;28;713;-77
2021/03/26 03:29:17;;;;;;;;;;;;;;;21.78;19.77;98183.25;5064725;28;939;-77
2021/03/26 03:32:04;;;;;;;;;;;;;;;22.32;19.25;98189.16;5082558;28;1890;-77
2021/03/26 03:34:33;;;;;;;;;;;;;;;22.96;18.15;98185.81;5064647;28;1333;-78
2021/03/26 03:37:02;;;;;;;;;;;;;;;22.44;19.07;98189.69;5065303;28;599;-77
2021/03/26 03:39:29;;;;;;;;;;;;;;;22.16;19.20;98191.22;5064699;28;1274;-77
2021/03/26 03:42:11;;;;;;;;;;;;;;;21.78;19.49;98195.38;5082444;28;650;-77
2021/03/26 03:44:38;;;;;;;;;;;;;;;22.47;18.80;98205.78;5047279;28;1386;-77
2021/03/26 03:47:12;;;;;;;;;;;;;;;23.11;18.06;98206.88;5048389;28;1191;-77
2021/03/26 03:49:52;;;;;;;;;;;;;;;22.34;19.11;98209.38;5048956;28;1187;-77
2021/03/26 03:52:29;;;;;;;;;;;;;;;22.09;19.42;98192.19;5065133;28;1898;-77
2021/03/26 03:54:59;;;;;;;;;;;;;;;21.71;19.62;98206.06;5064293;28;621;-77
2021/03/26 03:57:36;;;;;;;;;;;;;;;21.97;19.57;98212.72;5049804;28;961;-78
2021/03/26 04:00:16;;;;;;;;;;;;;;;23.28;17.57;98218.94;5047451;28;1282;-77
2021/03/26 04:02:55;;;;;;;;;;;;;;;22.58;18.71;98226.16;5048449;28;1376;-77
2021/03/26 04:05:39;;;;;;;;;;;;;;;22.03;19.14;98222.28;5063777;28;767;-77
2021/03/26 04:08:13;;;;;;;;;;;;;;;21.91;19.04;98215.28;5064011;28;1336;-77
2021/03/26 04:10:40;;;;;;;;;;;;;;;21.73;19.43;98226.25;5064639;28;1384;-77
2021/03/26 04:13:10;;;;;;;;;;;;;;;21.58;19.67;98231.44;5063920;28;1957;-78
2021/03/26 04:15:41;;;;;;;;;;;;;;;21.46;19.84;98229.31;5046749;28;1205;-77
2021/03/26 04:18:13;;;;;;;;;;;;;;;21.51;19.67;98228.78;5063564;28;1365;-77
2021/03/26 04:21:11;;;;;;;;;;;;;;;21.93;19.28;98234.69;5082235;28;771;-77
2021/03/26 04:24:31;;;;;;;;;;;;;;;22.15;19.05;98237.81;5063572;28;1225;-77
2021/03/26 04:27:19;;;;;;;;;;;;;;;21.85;19.56;98240.50;5001204;28;898;-77
2021/03/26 04:30:11;;;;;;;;;;;;;;;21.43;19.71;98241.50;4977524;28;1139;-77
2021/03/26 04:32:44;;;;;;;;;;;;;;;21.50;19.75;98238.50;5063968;28;1901;-77
2021/03/26 04:35:10;;;;;;;;;;;;;;;22.26;18.95;98244.78;5047283;28;1206;-77
2021/03/26 04:37:36;;;;;;;;;;;;;;;21.95;18.87;98237.84;5047199;28;1249;-77
2021/03/26 04:40:27;;;;;;;;;;;;;;;21.65;19.48;98247.47;5063914;28;1159;-77
2021/03/26 04:42:56;;;;;;;;;;;;;;;21.64;19.52;98246.66;5081057;28;1029;-77
2021/03/26 04:45:24;;;;;;;;;;;;;;;21.25;19.93;98251.16;5047140;28;1304;-76
2021/03/26 04:48:18;;;;;;;;;;;;;;;21.35;19.73;98251.38;5063216;28;1395;-77
2021/03/26 04:51:06;;;;;;;;;;;;;;;22.02;19.11;98249.00;5063904;28;1360;-77
2021/03/26 04:54:06;;;;;;;;;;;;;;;21.92;19.11;98256.56;5036827;28;1957;-77
2021/03/26 04:56:38;;;;;;;;;;;;;;;21.85;19.34;98257.50;5048884;28;1036;-76
2021/03/26 04:59:25;;;;;;;;;;;;;;;21.86;19.13;98263.97;5084100;28;1178;-77
2021/03/26 05:02:11;;;;;;;;;;;;;;;21.78;19.23;98252.00;5070336;28;946;-78
2021/03/26 05:04:39;;;;;;;;;;;;;;;21.90;19.02;98298.66;5051231;28;1219;-77
2021/03/26 05:07:06;;;;;;;;;;;;;;;20.80;20.46;98267.81;5051393;28;1145;-77
2021/03/26 05:09:33;;;;;;;;;;;;;;;21.35;19.98;98268.34;5050336;28;1298;-77
2021/03/26 05:12:16;;;;;;;;;;;;;;;21.57;19.90;98269.50;5053431;28;1906;-78
2021/03/26 05:14:42;;;;;;;;;;;;;;;22.83;17.96;98265.97;5050968;28;1306;-77
2021/03/26 05:17:08;;;;;;;;;;;;;;;22.53;18.39;98272.06;5067803;28;969;-77
2021/03/26 05:19:44;;;;;;;;;;;;;;;21.97;18.92;98280.72;5084807;28;843;-77
2021/03/26 05:22:18;;;;;;;;;;;;;;;21.90;19.11;98278.84;5051789;28;1329;-77
2021/03/26 05:25:11;;;;;;;;;;;;;;;22.37;18.88;98281.38;5067444;28;1073;-78
2021/03/26 05:28:16;;;;;;;;;;;;;;;21.96;19.36;98284.78;4992455;28;1163;-78
2021/03/26 05:30:42;;;;;;;;;;;;;;;22.04;18.98;98280.56;4987940;28;1179;-78
2021/03/26 05:33:21;;;;;;;;;;;;;;;21.85;19.21;98280.16;5020019;28;1902;-78
2021/03/26 05:35:50;;;;;;;;;;;;;;;21.96;19.20;98285.56;5050475;28;1348;-78
2021/03/26 05:39:03;;;;;;;;;;;;;;;21.89;19.33;98284.97;5068867;28;480;-77
2021/03/26 05:41:55;;;;;;;;;;;;;;;22.00;19.17;98279.84;5070825;28;962;-77
2021/03/26 05:45:06;;;;;;;;;;;;;;;21.95;19.24;98283.19;5053168;28;1043;-78
2021/03/26 05:48:01;;;;;;;;;;;;;;;21.99;19.21;98289.56;5000644;28;1211;-78
2021/03/26 05:50:30;;;;;;;;;;;;;;;21.84;19.09;98294.78;5066665;28;1179;-78
2021/03/26 05:53:07;;;;;;;;;;;;;;;21.91;18.97;98305.13;5066340;28;1960;-77
2021/03/26 05:55:55;;;;;;;;;;;;;;;21.67;19.52;98299.59;5070146;28;957;-77
2021/03/26 05:58:30;;;;;;;;;;;;;;;21.75;19.42;98303.84;5066498;28;1262;-77
2021/03/26 06:01:02;;;;;;;;;;;;;;;21.74;19.38;98301.47;5050768;28;1192;-77
2021/03/26 06:03:56;;;;;;;;;;;;;;;22.02;19.24;98300.00;5083184;28;791;-77
2021/03/26 06:06:47;;;;;;;;;;;;;;;20.96;20.30;98303.88;5084560;28;655;-78
2021/03/26 06:09:32;;;;;;;;;;;;;;;22.25;18.89;98307.59;5042339;28;1114;-78
2021/03/26 06:12:38;;;;;;;;;;;;;;;22.40;18.83;98308.06;5084040;28;1898;-77
2021/03/26 06:15:42;;;;;;;;;;;;;;;22.43;18.53;98310.00;5038711;28;1125;-77
2021/03/26 06:19:04;;;;;;;;;;;;;;;21.99;19.09;98312.25;4991446;28;769;-77
2021/03/26 06:21:53;;;;;;;;;;;;;;;21.92;19.23;98318.09;5003264;28;622;-77
2021/03/26 06:24:41;;;;;;;;;;;;;;;22.07;19.09;98317.31;5047554;28;1310;-78
2021/03/26 06:27:33;;;;;;;;;;;;;;;21.59;19.40;98317.97;5065702;28;926;-78
2021/03/26 06:30:00;;;;;;;;;;;;;;;21.97;19.24;98309.84;5065291;28;1166;-77
2021/03/26 06:32:49;;;;;;;;;;;;;;;21.75;19.51;98315.19;5066571;28;1875;-77
2021/03/26 06:35:38;;;;;;;;;;;;;;;21.65;19.60;98321.88;5066028;28;1241;-77
2021/03/26 06:38:22;;;;;;;;;;;;;;;21.71;19.50;98323.00;5083535;28;810;-77
2021/03/26 06:41:00;;;;;;;;;;;;;;;21.81;19.48;98324.78;5083625;28;654;-77
2021/03/26 06:43:44;;;;;;;;;;;;;;;21.64;19.61;98325.97;5082733;28;980;-77
2021/03/26 06:46:19;;;;;;;;;;;;;;;21.59;19.67;98329.31;5083491;28;860;-77
2021/03/26 06:49:03;;;;;;;;;;;;;;;21.68;19.63;98325.88;5082827;28;665;-77
2021/03/26 06:51:38;;;;;;;;;;;;;;;22.76;18.20;98324.97;5083805;28;683;-78
2021/03/26 06:54:03;;;;;;;;;;;;;;;22.36;18.47;98325.94;5065895;28;1902;-77
2021/03/26 06:56:49;;;;;;;;;;;;;;;21.99;18.98;98334.91;5083143;28;694;-77
2021/03/26 06:59:33;;;;;;;;;;;;;;;21.62;19.72;98339.78;5041859;28;1191;-77
2021/03/26 07:02:01;;;;;;;;;;;;;;;22.05;19.25;98344.47;5083073;28;920;-77
2021/03/26 07:04:47;;;;;;;;;;;;;;;22.31;18.72;98340.66;5065530;28;643;-77
2021/03/26 07:07:33;;;;;;;;;;;;;;;22.53;18.40;98340.13;5080301;28;594;-78
2021/03/26 07:10:08;;;;;;;;;;;;;;;22.02;19.16;98349.00;5068522;28;1137;-77
2021/03/26 07:12:46;;;;;;;;;;;;;;;21.96;19.27;98347.13;5048914;28;1902;-77
2021/03/26 07:15:18;;;;;;;;;;;;;;;21.81;19.16;98344.63;5064927;28;1337;-78
2021/03/26 07:17:46;;;;;;;;;;;;;;;21.71;19.36;98348.47;5082377;28;901;-77
2021/03/26 07:20:12;;;;;;;;;;;;;;;21.69;19.59;98345.28;5064150;28;653;-77
2021/03/26 07:22:40;;;;;;;;;;;;;;;21.81;19.43;98350.28;5082763;28;715;-77
2021/03/26 07:25:06;;;;;;;;;;;;;;;21.66;19.58;98351.00;5082577;28;722;-78
2021/03/26 07:27:50;;;;;;;;;;;;;;;21.62;19.68;98353.94;5083922;28;667;-78
2021/03/26 07:30:36;;;;;;;;;;;;;;;22.01;19.25;98355.09;5083079;28;1003;-78
2021/03/26 07:33:02;;;;;;;;;;;;;;;22.26;18.73;98355.34;5067969;28;1894;-78
2021/03/26 07:35:37;;;;;;;;;;;;;;;22.35;18.66;98355.53;5083084;28;665;-79
2021/03/26 07:38:06;;;;;;;;;;;;;;;22.36;18.93;98354.28;5082720;28;689;-78
2021/03/26 07:40:31;;;;;;;;;;;;;;;22.53;18.57;98363.59;5083208;28;749;-78
2021/03/26 07:42:57;;;;;;;;;;;;;;;22.17;18.85;98360.81;5081756;28;983;-77
2021/03/26 07:45:28;;;;;;;;;;;;;;;21.84;19.29;98357.09;5081672;28;964;-77
2021/03/26 07:48:15;;;;;;;;;;;;;;;21.78;19.25;98353.97;5064661;28;853;-77
2021/03/26 07:50:42;;;;;;;;;;;;;;;21.76;19.35;98361.31;5064841;28;748;-78
2021/03/26 07:53:25;;;;;;;;;;;;;;;21.53;19.76;98360.16;5064310;28;1971;-78
2021/03/26 07:55:54;;;;;;;;;;;;;;;21.81;19.37;98358.78;5082457;28;644;-77
2021/03/26 07:58:36;;;;;;;;;;;;;;;22.20;18.93;98359.94;5063908;28;987;-78
2021/03/26 08:01:05;;;;;;;;;;;;;;;22.38;18.67;98361.56;5048670;28;910;-77
2021/03/26 08:03:49;;;;;;;;;;;;;;;22.44;18.50;98371.16;5063918;28;1253;-77
2021/03/26 08:06:20;;;;;;;;;;;;;;;22.10;19.21;98358.13;5082357;28;786;-77
2021/03/26 08:08:46;;;;;;;;;;;;;;;22.01;19.02;98377.75;5081093;28;709;-77
2021/03/26 08:11:44;;;;;;;;;;;;;;;21.89;19.45;98376.41;5082036;28;1199;-77
2021/03/26 08:14:13;;;;;;;;;;;;;;;22.35;18.66;98383.88;5081099;28;1970;-77
2021/03/26 08:16:57;;;;;;;;;;;;;;;22.51;18.70;98382.31;5081481;28;883;-77
2021/03/26 08:19:25;;;;;;;;;;;;;;;22.26;18.80;98389.34;5081194;28;682;-77
2021/03/26 08:21:57;;;;;;;;;;;;;;;21.93;19.25;98387.66;5064868;28;1251;-77
2021/03/26 08:24:32;;;;;;;;;;;;;;;21.74;19.54;98387.25;5064043;28;794;-77
2021/03/26 08:27:16;;;;;;;;;;;;;;;21.87;19.32;98375.25;5064582;28;634;-77
2021/03/26 08:29:44;;;;;;;;;;;;;;;22.27;18.79;98384.47;5080887;28;873;-77
2021/03/26 08:32:28;;;;;;;;;;;;;;;22.52;18.44;98390.38;5064205;28;1902;-78
2021/03/26 08:35:12;;;;;;;;;;;;;;;22.26;18.54;98394.22;5063765;28;1293;-77
2021/03/26 08:38:00;;;;;;;;;;;;;;;21.84;19.03;98397.53;5081703;28;794;-78
2021/03/26 08:40:40;;;;;;;;;;;;;;;21.74;19.38;98401.41;5064263;28;651;-77
2021/03/26 08:43:05;;;;;;;;;;;;;;;21.68;19.56;98394.66;5080376;28;638;-77
2021/03/26 08:45:32;;;;;;;;;;;;;;;22.22;18.54;98405.66;5063146;28;1036;-76
2021/03/26 08:47:57;;;;;;;;;;;;;;;22.39;18.70;98397.19;5046695;28;887;-78
2021/03/26 08:50:22;;;;;;;;;;;;;;;22.46;18.55;98397.81;5081027;28;936;-77
2021/03/26 08:53:05;;;;;;;;;;;;;;;21.97;19.09;98396.91;5080828;28;1884;-77
2021/03/26 08:55:34;;;;;;;;;;;;;;;21.87;18.89;98401.56;5064302;28;647;-78
2021/03/26 08:58:18;;;;;;;;;;;;;;;21.83;19.02;98407.28;5080935;28;676;-77
2021/03/26 09:00:50;;;;;;;;;;;;;;;22.08;19.07;98400.28;5081252;28;1043;-77
2021/03/26 09:03:27;;;;;;;;;;;;;;;22.39;18.42;98397.19;5080405;28;934;-77
2021/03/26 09:06:05;;;;;;;;;;;;;;;22.53;18.33;98408.97;5081666;28;694;-77
2021/03/26 09:08:30;;;;;;;;;;;;;;;22.04;19.03;98400.34;5080336;28;642;-77
2021/03/26 09:11:15;;;;;;;;;;;;;;;22.02;18.84;98408.50;5081604;28;1024;-77
2021/03/26 09:13:56;;;;;;;;;;;;;;;21.94;18.83;98411.94;5062878;28;1914;-77
2021/03/26 09:16:21;;;;;;;;;;;;;;;21.59;19.32;98403.72;5063827;28;836;-77
2021/03/26 09:18:47;;;;;;;;;;;;;;;21.49;19.25;98421.72;5080153;28;852;-77
2021/03/26 09:21:19;;;;;;;;;;;;;;;21.99;19.04;98420.72;5064009;28;1234;-77
2021/03/26 09:23:51;;;;;;;;;;;;;;;22.19;18.61;98417.88;5063258;28;646;-78
2021/03/26 09:26:28;;;;;;;;;;;;;;;22.51;18.22;98428.47;5063903;28;598;-77
2021/03/26 09:28:54;;;;;;;;;;;;;;;21.92;18.94;98425.75;5080391;28;674;-77
2021/03/26 09:31:29;;;;;;;;;;;;;;;21.74;19.21;98426.91;5062912;28;901;-77
2021/03/26 09:33:58;;;;;;;;;;;;;;;21.56;19.42;98437.78;5062810;28;1890;-77
2021/03/26 09:36:25;;;;;;;;;;;;;;;22.03;19.04;98431.97;5063573;28;733;-77
2021/03/26 09:38:53;;;;;;;;;;;;;;;22.31;18.52;98425.69;5062476;28;873;-78
2021/03/26 09:41:26;;;;;;;;;;;;;;;22.43;18.32;98421.38;5064265;28;721;-77
2021/03/26 09:43:54;;;;;;;;;;;;;;;22.23;18.46;98418.59;5066231;28;685;-77
2021/03/26 09:46:38;;;;;;;;;;;;;;;22.02;18.70;98411.34;5067277;28;868;-78
2021/03/26 09:49:19;;;;;;;;;;;;;;;21.81;19.07;98426.75;5083774;28;878;-78
2021/03/26 09:51:52;;;;;;;;;;;;;;;22.36;18.25;98425.16;5084473;28;669;-78
2021/03/26 09:54:35;;;;;;;;;;;;;;;22.50;18.14;98426.09;5066595;28;1967;-78
2021/03/26 09:57:19;;;;;;;;;;;;;;;22.36;18.28;98416.66;5067000;28;847;-77
2021/03/26 09:59:48;;;;;;;;;;;;;;;21.95;18.98;98413.50;5084062;28;602;-78
2021/03/26 10:02:45;;;;;;;;;;;;;;;21.77;19.01;98408.25;5084315;28;853;-78
2021/03/26 10:05:12;;;;;;;;;;;;;;;22.03;18.79;98427.09;5039544;28;1309;-78
2021/03/26 10:07:45;;;;;;;;;;;;;;;22.66;17.96;98425.31;5084291;28;710;-78
2021/03/26 10:12:48;;;;;;;;;;;;;;;22.00;18.92;98415.84;5084251;28;1910;-78
2021/03/26 10:15:34;;;;;;;;;;;;;;;21.78;19.05;98426.81;5066520;28;971;-78
2021/03/26 10:18:01;;;;;;;;;;;;;;;21.81;19.13;98426.75;5042657;28;1040;-78
2021/03/26 10:20:30;;;;;;;;;;;;;;;22.36;18.48;98432.88;5066515;28;598;-77
2021/03/26 10:23:08;;;;;;;;;;;;;;;22.52;18.25;98434.94;5083823;28;633;-78
2021/03/26 10:25:36;;;;;;;;;;;;;;;22.42;18.38;98433.94;5084115;28;698;-78
2021/03/26 10:28:04;;;;;;;;;;;;;;;21.84;19.08;98434.38;5066163;28;716;-78
2021/03/26 10:30:35;;;;;;;;;;;;;;;21.90;18.87;98439.53;5084094;28;1049;-78
2021/03/26 10:33:05;;;;;;;;;;;;;;;22.08;18.54;98425.78;5065811;28;1902;-77
2021/03/26 10:35:31;;;;;;;;;;;;;;;22.34;18.29;98430.50;5066530;28;1090;-77
2021/03/26 10:38:00;;;;;;;;;;;;;;;22.48;18.21;98428.56;5083546;28;762;-77
2021/03/26 10:40:34;;;;;;;;;;;;;;;22.59;17.99;98429.13;5083832;28;671;-78
2021/03/26 10:43:06;;;;;;;;;;;;;;;22.04;18.84;98439.22;5083882;28;662;-77
2021/03/26 10:45:34;;;;;;;;;;;;;;;21.93;18.75;98425.28;5083542;28;1002;-78
2021/03/26 10:48:02;;;;;;;;;;;;;;;21.76;18.97;98421.59;5082956;28;1058;-78
2021/03/26 10:50:46;;;;;;;;;;;;;;;22.06;18.50;98420.53;5065984;28;923;-77
2021/03/26 10:53:12;;;;;;;;;;;;;;;22.41;18.44;98423.06;5082944;28;1902;-78
2021/03/26 10:55:42;;;;;;;;;;;;;;;22.35;18.22;98420.75;5083450;28;693;-78
2021/03/26 10:58:13;;;;;;;;;;;;;;;21.96;18.57;98420.78;5066107;28;702;-78
2021/03/26 11:00:43;;;;;;;;;;;;;;;21.84;18.86;98425.06;5065946;28;946;-77
2021/03/26 11:03:10;;;;;;;;;;;;;;;21.70;18.83;98420.50;5064969;28;850;-77
2021/03/26 11:05:44;;;;;;;;;;;;;;;21.74;19.11;98409.91;5066050;28;706;-78
2021/03/26 11:08:18;;;;;;;;;;;;;;;21.82;18.84;98417.03;5065701;28;729;-78
2021/03/26 11:10:44;;;;;;;;;;;;;;;21.74;18.95;98409.91;5065906;28;1110;-78
2021/03/26 11:13:19;;;;;;;;;;;;;;;21.68;19.24;98414.47;5064930;28;1969;-78
2021/03/26 11:15:49;;;;;;;;;;;;;;;22.17;18.66;98428.84;5082927;28;903;-77
2021/03/26 11:18:21;;;;;;;;;;;;;;;22.35;18.17;98422.78;5064986;28;686;-77
2021/03/26 11:20:46;;;;;;;;;;;;;;;22.06;18.65;98422.56;5083006;28;670;-77
2021/03/26 11:23:17;;;;;;;;;;;;;;;21.85;18.96;98407.63;5082457;28;678;-77
2021/03/26 11:25:46;;;;;;;;;;;;;;;21.77;18.80;98409.03;5065622;28;654;-78
2021/03/26 11:28:19;;;;;;;;;;;;;;;21.70;19.13;98412.00;5064110;28;864;-78
2021/03/26 11:30:51;;;;;;;;;;;;;;;22.10;18.55;98417.63;5065491;28;880;-78
2021/03/26 11:33:20;;;;;;;;;;;;;;;22.48;18.20;98420.03;5081416;28;1906;-77
2021/03/26 11:35:46;;;;;;;;;;;;;;;22.53;18.00;98426.00;5082673;28;658;-78
2021/03/26 11:38:14;;;;;;;;;;;;;;;22.26;18.50;98414.06;5064591;28;649;-78
2021/03/26 11:40:48;;;;;;;;;;;;;;;21.95;18.59;98411.47;5082641;28;816;-78
2021/03/26 11:43:16;;;;;;;;;;;;;;;21.66;19.05;98419.78;5064537;28;604;-77
2021/03/26 11:45:47;;;;;;;;;;;;;;;21.62;19.24;98424.72;5082546;28;943;-77
2021/03/26 11:48:12;;;;;;;;;;;;;;;22.06;18.63;98431.09;5064304;28;979;-78
2021/03/26 11:50:52;;;;;;;;;;;;;;;22.41;18.15;98417.38;5082293;28;936;-77
2021/03/26 11:53:35;;;;;;;;;;;;;;;22.55;18.03;98417.06;5064470;28;1890;-77
2021/03/26 11:56:20;;;;;;;;;;;;;;;22.15;18.59;98422.81;5082515;28;697;-78
2021/03/26 11:59:20;;;;;;;;;;;;;;;21.97;18.78;98419.56;5081464;28;811;-77
2021/03/26 12:01:49;;;;;;;;;;;;;;;21.83;18.80;98424.28;5001163;28;1169;-78
2021/03/26 12:04:15;;;;;;;;;;;;;;;22.23;18.43;98421.44;5065880;28;1029;-78
2021/03/26 12:06:45;;;;;;;;;;;;;;;22.48;18.00;98411.53;5065128;28;686;-77
2021/03/26 12:09:31;;;;;;;;;;;;;;;22.50;18.09;98409.06;5081510;28;953;-78
2021/03/26 12:12:15;;;;;;;;;;;;;;;22.09;18.27;98413.22;5064905;28;610;-77
2021/03/26 12:14:43;;;;;;;;;;;;;;;21.91;18.74;98421.28;5081498;28;674;-77
2021/03/26 12:17:20;;;;;;;;;;;;;;;21.74;18.98;98401.41;5064751;28;994;-78
2021/03/26 12:19:46;;;;;;;;;;;;;;;22.36;18.33;98411.00;5081042;28;885;-77
2021/03/26 12:22:15;;;;;;;;;;;;;;;22.31;18.15;98422.84;5064526;28;615;-78
2021/03/26 12:25:02;;;;;;;;;;;;;;;22.42;18.13;98413.31;5063848;28;628;-78
2021/03/26 12:27:29;;;;;;;;;;;;;;;20.32;18.48;98141.09;5068407;28;1115;-77
2021/03/26 12:29:57;;;;;;;;;;;;;;;21.90;18.51;98405.53;5064249;28;725;-78
2021/03/26 12:32:26;;;;;;;;;;;;;;;21.95;18.30;98413.50;5081784;28;1894;-77
2021/03/26 12:35:11;;;;;;;;;;;;;;;22.35;18.00;98409.41;5080654;28;885;-77
2021/03/26 12:37:56;;;;;;;;;;;;;;;22.48;18.06;98405.88;5081429;28;884;-77
2021/03/26 12:40:33;;;;;;;;;;;;;;;22.20;18.13;98401.66;5081675;28;761;-78
2021/03/26 12:43:24;;;;;;;;;;;;;;;21.72;18.57;98403.09;5080974;28;774;-78
2021/03/26 12:45:55;;;;;;;;;;;;;;;21.85;18.61;98404.81;5082264;28;649;-78
2021/03/26 12:48:21;;;;;;;;;;;;;;;22.01;18.43;98406.09;5063174;28;1081;-77
2021/03/26 12:51:09;;;;;;;;;;;;;;;22.43;18.15;98409.22;5047163;28;932;-78
2021/03/26 12:53:39;;;;;;;;;;;;;;;22.54;17.93;98404.13;5069837;28;2030;-78
2021/03/26 12:56:26;;;;;;;;;;;;;;;22.14;18.02;98415.56;5065008;28;716;-78
2021/03/26 12:58:54;;;;;;;;;;;;;;;21.71;18.56;98404.31;5081036;28;634;-78
2021/03/26 13:01:27;;;;;;;;;;;;;;;21.75;18.68;98405.81;5081779;28;662;-78
2021/03/26 13:03:56;;;;;;;;;;;;;;;21.64;18.63;98405.25;5063303;28;1081;-78
2021/03/26 13:06:38;;;;;;;;;;;;;;;21.94;18.60;98406.25;5081397;28;940;-78
2021/03/26 13:09:19;;;;;;;;;;;;;;;22.31;18.12;98403.00;5063375;28;989;-78
2021/03/26 13:11:46;;;;;;;;;;;;;;;22.49;17.93;98393.31;5081913;28;661;-78
2021/03/26 13:14:12;;;;;;;;;;;;;;;22.12;18.43;98394.56;5063492;28;1914;-78
2021/03/26 13:16:42;;;;;;;;;;;;;;;21.88;18.35;98403.16;5064345;28;838;-78
2021/03/26 13:19:14;;;;;;;;;;;;;;;21.87;18.33;98403.59;5049639;28;1274;-77
2021/03/26 13:21:58;;;;;;;;;;;;;;;21.69;18.60;98401.91;5085478;28;654;-77
2021/03/26 13:24:26;;;;;;;;;;;;;;;22.20;18.02;98404.50;5084689;28;927;-78
2021/03/26 13:27:11;;;;;;;;;;;;;;;22.53;17.67;98413.84;5085115;28;860;-78
2021/03/26 13:29:37;;;;;;;;;;;;;;;21.98;18.39;98421.16;5084955;28;1109;-78
2021/03/26 13:32:03;;;;;;;;;;;;;;;21.99;18.18;98414.25;5067987;28;686;-78
2021/03/26 13:34:30;;;;;;;;;;;;;;;21.71;18.69;98413.63;5050549;28;1979;-77
2021/03/26 13:36:56;;;;;;;;;;;;;;;21.96;18.47;98415.09;5068068;28;634;-78
2021/03/26 13:39:25;;;;;;;;;;;;;;;22.23;17.98;98417.81;5084612;28;670;-78
2021/03/26 13:42:26;;;;;;;;;;;;;;;22.59;17.64;98409.28;5067820;28;653;-78
2021/03/26 13:44:58;;;;;;;;;;;;;;;22.40;17.80;98415.78;5003404;28;1218;-78